Time;durP1;ratioP1;P1;durP2;ratioP2;P2;SDS_P1;SDS_P2;PMS_P1;PMS_P2;Temp;Humidity;BMP_temperature;BMP_pressure;BME280_temperature;BME280_humidity;BME280_pressure;Samples;Min_cycle;Max_cycle;Signal;HPM_P1;HPM_P2
2020/12/13 00:00:12;;;;;;;45.80;13.75;;;7.20;99.90;;;;;;5073473;28;20045;-74
2020/12/13 00:02:37;;;;;;;59.38;15.07;;;7.20;99.90;;;;;;5073117;28;20029;-74
2020/12/13 00:05:04;;;;;;;48.08;15.18;;;7.20;99.90;;;;;;5073154;28;20027;-74
2020/12/13 00:07:29;;;;;;;61.05;16.83;;;7.20;99.90;;;;;;5073014;28;20032;-76
2020/12/13 00:09:55;;;;;;;61.25;16.65;;;7.20;99.90;;;;;;5073212;28;20427;-77
2020/12/13 00:12:20;;;;;;;55.30;16.35;;;7.20;99.90;;;;;;5073684;28;20048;-77
2020/12/13 00:14:46;;;;;;;55.80;15.43;;;7.20;99.90;;;;;;5073097;28;20466;-77
2020/12/13 00:17:11;;;;;;;64.88;15.25;;;7.20;99.90;;;;;;5071825;28;20141;-75
2020/12/13 00:19:37;;;;;;;53.28;15.63;;;7.20;99.90;;;;;;5073014;28;20120;-75
2020/12/13 00:22:03;;;;;;;56.13;13.80;;;7.20;99.90;;;;;;5071887;28;20028;-76
2020/12/13 00:24:28;;;;;;;58.63;15.38;;;7.20;99.90;;;;;;5073156;28;20501;-75
2020/12/13 00:26:54;;;;;;;58.35;15.02;;;7.20;99.90;;;;;;5072731;28;20026;-76
2020/12/13 00:29:19;;;;;;;57.97;17.00;;;7.20;99.90;;;;;;5072407;28;20028;-77
2020/12/13 00:31:45;;;;;;;57.35;14.73;;;7.20;99.90;;;;;;5073092;28;20146;-77
2020/12/13 00:34:10;;;;;;;62.95;14.98;;;7.20;99.90;;;;;;5073178;28;20029;-77
2020/12/13 00:36:36;;;;;;;65.45;16.20;;;7.40;99.90;;;;;;5073236;28;20480;-74
2020/12/13 00:39:03;;;;;;;60.47;16.15;;;7.20;99.90;;;;;;5075911;28;20098;-74
2020/12/13 00:41:29;;;;;;;64.47;15.68;;;7.20;99.90;;;;;;5075510;28;20024;-77
2020/12/13 00:43:54;;;;;;;58.78;14.70;;;7.20;99.90;;;;;;5077458;28;20031;-75
2020/12/13 00:46:20;;;;;;;63.38;17.00;;;7.20;99.90;;;;;;5076729;28;20131;-75
2020/12/13 00:48:46;;;;;;;50.83;15.65;;;7.20;99.90;;;;;;5075511;28;20056;-76
2020/12/13 00:51:11;;;;;;;48.85;14.20;;;7.20;99.90;;;;;;5077037;28;20481;-75
2020/12/13 00:53:37;;;;;;;52.30;13.13;;;7.20;99.90;;;;;;5076699;28;20505;-77
2020/12/13 00:56:02;;;;;;;48.63;15.23;;;7.20;99.90;;;;;;5076967;28;20393;-77
2020/12/13 00:58:28;;;;;;;39.60;12.05;;;7.20;99.90;;;;;;5075214;28;20033;-78
2020/12/13 01:00:53;;;;;;;41.95;13.52;;;7.20;99.90;;;;;;5076882;28;20029;-77
2020/12/13 01:03:19;;;;;;;41.13;13.68;;;7.20;99.90;;;;;;5075016;28;20417;-74
2020/12/13 01:05:47;;;;;;;35.17;12.20;;;7.20;99.90;;;;;;5076193;28;20069;-74
2020/12/13 01:08:13;;;;;;;35.78;12.75;;;7.20;99.90;;;;;;5074710;28;20069;-76
2020/12/13 01:10:38;;;;;;;32.53;11.75;;;7.20;99.90;;;;;;5076942;28;20024;-76
2020/12/13 01:13:04;;;;;;;30.17;12.27;;;7.20;99.90;;;;;;5076363;28;20032;-77
2020/12/13 01:15:30;;;;;;;34.50;11.23;;;7.20;99.90;;;;;;5074773;28;20025;-76
2020/12/13 01:17:55;;;;;;;29.77;11.13;;;7.20;99.90;;;;;;5076424;28;20146;-76
2020/12/13 01:20:21;;;;;;;36.70;12.82;;;7.20;99.90;;;;;;5076282;28;20039;-78
2020/12/13 01:22:50;;;;;;;30.60;11.27;;;7.10;99.90;;;;;;5075818;28;20024;-77
2020/12/13 01:25:15;;;;;;;32.28;12.32;;;7.10;99.90;;;;;;5074688;28;20486;-76
2020/12/13 01:27:41;;;;;;;39.97;12.30;;;7.10;99.90;;;;;;5075562;28;20034;-75
2020/12/13 01:30:08;;;;;;;35.90;11.73;;;7.10;99.90;;;;;;5075772;28;20096;-76
2020/12/13 01:32:40;;;;;;;30.52;10.65;;;7.10;99.90;;;;;;5075548;28;20533;-77
2020/12/13 01:35:07;;;;;;;27.25;10.35;;;7.10;99.90;;;;;;5075582;28;20025;-77
2020/12/13 01:37:33;;;;;;;34.40;11.50;;;7.00;99.90;;;;;;5075311;28;20021;-76
2020/12/13 01:39:59;;;;;;;32.65;11.80;;;7.10;99.90;;;;;;5076479;28;20032;-77
2020/12/13 01:42:25;;;;;;;36.95;12.05;;;7.10;99.90;;;;;;5077591;28;20042;-77
2020/12/13 01:44:51;;;;;;;31.33;11.35;;;7.10;99.90;;;;;;5077925;28;20246;-76
2020/12/13 01:47:18;;;;;;;39.30;12.85;;;7.10;99.90;;;;;;5075346;28;20497;-77
2020/12/13 01:49:45;;;;;;;35.95;11.82;;;7.10;99.90;;;;;;5074569;28;20052;-77
2020/12/13 01:55:05;;;;;;;34.17;12.55;;;7.10;99.90;;;;;;5076053;28;20036;-77
2020/12/13 01:57:34;;;;;;;41.15;11.77;;;7.10;99.90;;;;;;5076738;28;20036;-77
2020/12/13 02:00:09;;;;;;;45.63;12.30;;;7.10;99.90;;;;;;5074974;28;20024;-77
2020/12/13 02:02:42;;;;;;;39.78;11.35;;;7.10;99.90;;;;;;5073801;28;20121;-76
2020/12/13 02:05:09;;;;;;;38.78;13.15;;;7.10;99.90;;;;;;5075035;28;20078;-77
2020/12/13 02:07:37;;;;;;;42.08;12.93;;;7.10;99.90;;;;;;5074782;28;20021;-76
2020/12/13 02:10:07;;;;;;;36.22;10.90;;;7.10;99.90;;;;;;5075111;28;20020;-76
2020/12/13 02:12:32;;;;;;;32.78;10.85;;;7.10;99.90;;;;;;5073807;28;20552;-76
2020/12/13 02:14:58;;;;;;;36.17;11.98;;;7.10;99.90;;;;;;5075424;28;20040;-78
2020/12/13 02:17:23;;;;;;;33.17;11.60;;;7.10;99.90;;;;;;5073620;28;20027;-78
2020/12/13 02:19:50;;;;;;;34.70;11.77;;;7.20;99.90;;;;;;5075259;28;20048;-78
2020/12/13 02:22:16;;;;;;;37.72;12.32;;;7.20;99.90;;;;;;5074838;28;20029;-78
2020/12/13 02:24:41;;;;;;;33.72;11.30;;;7.20;99.90;;;;;;5075598;28;20089;-77
2020/12/13 02:27:08;;;;;;;34.38;11.57;;;7.20;99.90;;;;;;5075833;28;20541;-77
2020/12/13 02:29:35;;;;;;;31.25;11.98;;;7.20;99.90;;;;;;5073925;28;20021;-76
2020/12/13 02:32:02;;;;;;;30.05;9.68;;;7.20;99.90;;;;;;5073295;28;20023;-78
2020/12/13 02:34:27;;;;;;;28.67;10.63;;;7.20;99.90;;;;;;5075187;28;20013;-78
2020/12/13 02:36:53;;;;;;;29.42;10.88;;;7.20;99.90;;;;;;5073251;28;20024;-77
2020/12/13 02:39:18;;;;;;;27.05;10.10;;;7.20;99.90;;;;;;5074805;28;20024;-77
2020/12/13 02:42:01;;;;;;;31.75;11.23;;;7.20;99.90;;;;;;5074669;28;20020;-77
2020/12/13 02:44:27;;;;;;;32.30;11.00;;;7.20;99.90;;;;;;5074637;28;20028;-75
2020/12/13 02:46:52;;;;;;;31.30;10.55;;;7.20;99.90;;;;;;5074431;28;20078;-78
2020/12/13 02:49:18;;;;;;;30.80;10.25;;;7.20;99.90;;;;;;5074450;28;20029;-77
2020/12/13 02:51:44;;;;;;;40.42;11.77;;;7.20;99.90;;;;;;5074562;28;20469;-77
2020/12/13 02:54:10;;;;;;;38.55;12.40;;;7.20;99.90;;;;;;5075197;28;20016;-77
2020/12/13 02:56:39;;;;;;;35.10;12.10;;;7.20;99.90;;;;;;5076458;28;20540;-78
2020/12/13 02:59:05;;;;;;;34.97;11.43;;;7.20;99.90;;;;;;5074059;28;20112;-78
2020/12/13 03:01:31;;;;;;;33.80;10.93;;;7.20;99.90;;;;;;5073717;28;20051;-77
2020/12/13 03:03:56;;;;;;;40.58;12.07;;;7.50;99.90;;;;;;5074913;28;20043;-78
2020/12/13 03:06:22;;;;;;;39.67;10.73;;;7.30;99.90;;;;;;5074237;28;20111;-78
2020/12/13 03:08:47;;;;;;;42.80;11.88;;;7.30;99.90;;;;;;5074150;28;20035;-78
2020/12/13 03:11:17;;;;;;;36.28;11.65;;;7.30;99.90;;;;;;5072902;28;20020;-78
2020/12/13 03:13:42;;;;;;;37.50;10.65;;;7.60;99.90;;;;;;5074251;28;20031;-78
2020/12/13 03:16:08;;;;;;;38.17;13.30;;;7.30;99.90;;;;;;5074033;28;20028;-78
2020/12/13 03:18:33;;;;;;;39.30;12.63;;;7.20;99.90;;;;;;5073825;28;20065;-78
2020/12/13 03:20:59;;;;;;;39.45;11.68;;;7.30;99.90;;;;;;5074299;28;20183;-76
2020/12/13 03:23:25;;;;;;;41.67;11.85;;;7.20;99.90;;;;;;5074038;28;20051;-77
2020/12/13 03:25:53;;;;;;;31.88;10.48;;;7.20;99.90;;;;;;5073634;28;20023;-77
2020/12/13 03:28:19;;;;;;;34.05;10.43;;;7.20;99.90;;;;;;5073839;28;20389;-77
2020/12/13 03:30:44;;;;;;;32.97;11.88;;;7.30;99.90;;;;;;5072504;28;20013;-77
2020/12/13 03:33:10;;;;;;;35.65;12.25;;;7.30;99.90;;;;;;5074091;28;20023;-77
2020/12/13 03:35:36;;;;;;;35.78;10.98;;;7.20;99.90;;;;;;5073485;28;20040;-77
2020/12/13 03:38:01;;;;;;;31.63;11.15;;;7.30;99.90;;;;;;5073853;28;20036;-77
2020/12/13 03:40:27;;;;;;;32.42;10.30;;;7.30;99.90;;;;;;5074073;28;20027;-77
2020/12/13 03:42:52;;;;;;;32.03;10.68;;;7.30;99.90;;;;;;5073952;28;20159;-77
2020/12/13 03:45:18;;;;;;;30.52;9.23;;;7.30;99.90;;;;;;5072165;28;20024;-77
2020/12/13 03:47:43;;;;;;;31.17;9.85;;;7.30;99.90;;;;;;5072875;28;20029;-77
2020/12/13 03:50:09;;;;;;;35.80;11.27;;;7.30;99.90;;;;;;5073697;28;20016;-77
2020/12/13 03:52:34;;;;;;;35.50;12.18;;;7.30;99.90;;;;;;5072122;28;20024;-76
2020/12/13 03:55:00;;;;;;;30.95;10.65;;;7.30;99.90;;;;;;5072597;28;20457;-77
2020/12/13 03:57:26;;;;;;;33.40;10.43;;;7.30;99.90;;;;;;5072462;28;20016;-79
2020/12/13 03:59:51;;;;;;;30.92;11.00;;;7.30;99.90;;;;;;5072407;28;20078;-78
2020/12/13 04:02:17;;;;;;;30.40;10.30;;;7.30;99.90;;;;;;5073492;28;20032;-78
2020/12/13 04:04:42;;;;;;;34.38;11.07;;;7.30;99.90;;;;;;5072454;28;20024;-77
2020/12/13 04:07:08;;;;;;;37.65;11.27;;;7.40;99.90;;;;;;5074706;28;20081;-77
2020/12/13 04:09:33;;;;;;;36.95;12.68;;;7.40;99.90;;;;;;5074323;28;20027;-77
2020/12/13 04:11:59;;;;;;;33.08;11.15;;;7.40;99.90;;;;;;5075082;28;20537;-77
2020/12/13 04:14:24;;;;;;;29.08;10.93;;;7.40;99.90;;;;;;5079248;28;20033;-77
2020/12/13 04:16:50;;;;;;;34.17;10.80;;;7.40;99.90;;;;;;5079230;28;20044;-78
2020/12/13 04:19:15;;;;;;;29.65;10.77;;;7.40;99.90;;;;;;5079065;28;20029;-77
2020/12/13 04:21:42;;;;;;;32.05;11.10;;;7.40;99.90;;;;;;5078172;28;20017;-78
2020/12/13 04:24:08;;;;;;;33.85;10.27;;;7.40;99.90;;;;;;5079244;28;20016;-76
2020/12/13 04:26:34;;;;;;;32.20;10.98;;;7.50;99.90;;;;;;5078766;28;20066;-76
2020/12/13 04:28:59;;;;;;;36.15;11.52;;;7.40;99.90;;;;;;5078394;28;20488;-76
2020/12/13 04:31:25;;;;;;;34.90;12.68;;;7.40;99.90;;;;;;5079560;28;20012;-76
2020/12/13 04:33:51;;;;;;;34.60;12.80;;;7.40;99.90;;;;;;5078897;28;20025;-77
2020/12/13 04:36:16;;;;;;;34.35;11.68;;;7.80;99.90;;;;;;5079526;28;20073;-76
2020/12/13 04:38:42;;;;;;;35.15;11.77;;;8.10;99.90;;;;;;5079253;28;20393;-77
2020/12/13 04:41:08;;;;;;;32.55;10.95;;;7.40;99.90;;;;;;5078655;28;20017;-77
2020/12/13 04:43:33;;;;;;;33.33;11.00;;;7.50;99.90;;;;;;5076803;28;20031;-77
2020/12/13 04:45:59;;;;;;;32.25;11.55;;;7.50;99.90;;;;;;5079466;28;20032;-76
2020/12/13 04:48:26;;;;;;;30.05;11.48;;;7.50;99.90;;;;;;5077519;28;20108;-78
2020/12/13 04:50:52;;;;;;;34.95;11.38;;;7.50;99.90;;;;;;5076963;28;20476;-78
2020/12/13 04:53:18;;;;;;;27.25;10.07;;;7.50;99.90;;;;;;5075653;28;20052;-79
2020/12/13 04:55:52;;;;;;;29.15;10.13;;;7.50;99.90;;;;;;5076846;28;20372;-78
2020/12/13 04:58:23;;;;;;;33.90;11.45;;;7.50;99.90;;;;;;5075305;28;20454;-79
2020/12/13 05:01:02;;;;;;;33.90;10.45;;;7.50;99.90;;;;;;5075537;28;20043;-79
2020/12/13 05:03:28;;;;;;;30.98;10.00;;;7.50;99.90;;;;;;5077256;28;20020;-78
2020/12/13 05:06:03;;;;;;;26.60;10.32;;;7.60;99.90;;;;;;5075647;28;20039;-77
2020/12/13 05:08:30;;;;;;;30.25;10.70;;;7.60;99.90;;;;;;5074841;28;20032;-77
2020/12/13 05:10:57;;;;;;;30.88;8.50;;;7.60;99.90;;;;;;5076204;28;20080;-77
2020/12/13 05:13:23;;;;;;;28.85;9.50;;;7.60;99.90;;;;;;5074798;28;20439;-77
2020/12/13 05:15:49;;;;;;;29.42;10.25;;;7.60;99.90;;;;;;5076703;28;20434;-77
2020/12/13 05:18:14;;;;;;;26.92;10.02;;;7.60;99.90;;;;;;5076279;28;20051;-76
2020/12/13 05:20:40;;;;;;;25.63;10.13;;;7.60;99.90;;;;;;5074543;28;20097;-76
2020/12/13 05:23:07;;;;;;;30.58;10.75;;;7.60;99.90;;;;;;5074511;28;20019;-77
2020/12/13 05:25:38;;;;;;;23.55;9.07;;;7.50;99.90;;;;;;5074931;28;20024;-76
2020/12/13 05:28:06;;;;;;;24.40;10.05;;;7.50;99.90;;;;;;5075901;28;20107;-76
2020/12/13 05:30:44;;;;;;;26.45;10.02;;;7.50;99.90;;;;;;5075726;28;20060;-77
2020/12/13 05:33:31;;;;;;;22.55;8.77;;;7.50;99.90;;;;;;5076308;28;20052;-76
2020/12/13 05:36:09;;;;;;;25.00;8.70;;;7.50;99.90;;;;;;5075659;28;20074;-76
2020/12/13 05:38:39;;;;;;;29.20;9.38;;;7.50;99.90;;;;;;5074229;28;20048;-76
2020/12/13 05:41:06;;;;;;;26.13;9.55;;;7.40;99.90;;;;;;5074341;28;20033;-77
2020/12/13 05:43:37;;;;;;;22.58;9.65;;;7.40;99.90;;;;;;5075373;28;20024;-77
2020/12/13 05:51:23;;;;;;;20.67;8.27;;;7.40;99.90;;;;;;5075657;28;20124;-76
2020/12/13 05:53:56;;;;;;;22.70;8.52;;;7.40;99.90;;;;;;5075887;28;20062;-77
2020/12/13 05:56:24;;;;;;;19.63;7.55;;;7.40;99.90;;;;;;5075236;28;20020;-76
2020/12/13 05:58:51;;;;;;;17.95;7.53;;;7.40;99.90;;;;;;5073909;28;20029;-77
2020/12/13 06:01:22;;;;;;;16.95;7.28;;;7.40;99.90;;;;;;5075254;28;20043;-76
2020/12/13 06:03:54;;;;;;;21.33;7.32;;;7.40;99.90;;;;;;5076090;28;20109;-77
2020/12/13 06:06:23;;;;;;;19.30;7.38;;;7.40;99.90;;;;;;5075517;28;20020;-76
2020/12/13 06:09:18;;;;;;;20.30;8.23;;;7.50;99.90;;;;;;5076086;28;20017;-77
2020/12/13 06:11:47;;;;;;;20.05;7.60;;;7.50;99.90;;;;;;5072526;28;20036;-77
2020/12/13 06:14:15;;;;;;;16.95;6.80;;;7.50;99.90;;;;;;5076009;28;20024;-77
2020/12/13 06:16:42;;;;;;;18.25;6.95;;;7.50;99.90;;;;;;5074551;28;20013;-77
2020/12/13 06:19:10;;;;;;;24.88;8.32;;;7.50;99.90;;;;;;5074533;28;20113;-76
2020/12/13 06:21:38;;;;;;;24.40;7.83;;;7.50;99.90;;;;;;5074517;28;20079;-77
2020/12/13 06:24:03;;;;;;;24.35;8.02;;;7.60;99.90;;;;;;5075394;28;20025;-77
2020/12/13 06:26:29;;;;;;;25.20;9.02;;;7.60;99.90;;;;;;5075441;28;20031;-78
2020/12/13 06:28:56;;;;;;;22.98;8.38;;;7.60;99.90;;;;;;5073700;28;20448;-78
2020/12/13 06:31:21;;;;;;;22.95;8.93;;;7.60;99.90;;;;;;5074799;28;20025;-77
2020/12/13 06:33:47;;;;;;;25.50;8.88;;;7.60;99.90;;;;;;5073565;28;20032;-77
2020/12/13 06:36:14;;;;;;;26.45;8.98;;;7.60;99.90;;;;;;5073249;28;20020;-77
2020/12/13 06:38:41;;;;;;;25.48;8.38;;;7.70;99.90;;;;;;5073284;28;20104;-78
2020/12/13 06:41:13;;;;;;;26.40;9.07;;;7.60;99.90;;;;;;5074485;28;20020;-77
2020/12/13 06:43:40;;;;;;;22.85;9.10;;;7.60;99.90;;;;;;5074277;28;20035;-76
2020/12/13 06:46:13;;;;;;;23.35;8.40;;;7.60;99.90;;;;;;5074927;28;20020;-76
2020/12/13 06:48:42;;;;;;;24.25;8.35;;;7.70;99.90;;;;;;5074291;28;20017;-76
2020/12/13 06:51:09;;;;;;;19.85;7.30;;;7.60;99.90;;;;;;5074880;28;20385;-76
2020/12/13 06:53:38;;;;;;;18.73;8.05;;;7.60;99.90;;;;;;5075268;28;20171;-76
2020/12/13 06:56:07;;;;;;;18.10;6.78;;;7.60;99.90;;;;;;5073818;28;20475;-77
2020/12/13 06:58:56;;;;;;;14.43;6.03;;;7.70;99.90;;;;;;5074131;28;20508;-77
2020/12/13 07:01:34;;;;;;;15.02;6.80;;;7.70;99.90;;;;;;5074975;28;20024;-78
2020/12/13 07:04:35;;;;;;;17.83;6.72;;;7.70;99.90;;;;;;5074393;28;20028;-78
2020/12/13 07:09:29;;;;;;;14.68;5.18;;;7.70;99.90;;;;;;5074803;28;20039;-77
2020/12/13 07:14:23;;;;;;;13.68;6.07;;;7.70;99.90;;;;;;5101275;22;20056;-77
2020/12/13 07:17:04;;;;;;;19.17;6.45;;;7.70;99.90;;;;;;5094999;28;20055;-78
2020/12/13 07:19:32;;;;;;;17.65;6.93;;;7.70;99.90;;;;;;5095947;28;20391;-76
2020/12/13 07:22:04;;;;;;;16.73;7.13;;;7.70;99.90;;;;;;5096985;28;20020;-78
2020/12/13 07:24:33;;;;;;;14.77;5.57;;;7.70;99.90;;;;;;5096184;28;20099;-76
2020/12/13 07:26:59;;;;;;;17.42;7.07;;;7.70;99.90;;;;;;5094480;28;20123;-77
2020/12/13 07:29:25;;;;;;;18.83;7.45;;;7.70;99.90;;;;;;5094281;28;20024;-78
2020/12/13 07:31:52;;;;;;;20.23;7.43;;;7.70;99.90;;;;;;5094602;28;20418;-78
2020/12/13 07:34:17;;;;;;;16.85;7.35;;;7.80;99.90;;;;;;5094047;28;20024;-78
2020/12/13 07:36:43;;;;;;;24.23;7.55;;;7.80;99.90;;;;;;5093088;28;20069;-78
2020/12/13 07:39:13;;;;;;;14.88;6.80;;;7.80;99.90;;;;;;5093783;28;20031;-79
2020/12/13 07:41:39;;;;;;;19.67;7.68;;;7.80;99.90;;;;;;5094430;28;20043;-77
2020/12/13 07:44:07;;;;;;;21.70;7.40;;;7.80;99.90;;;;;;5093628;28;20028;-77
2020/12/13 07:46:34;;;;;;;16.45;7.22;;;7.80;99.90;;;;;;5093359;28;20047;-77
2020/12/13 07:49:17;;;;;;;22.33;8.30;;;7.80;99.90;;;;;;5092024;28;20384;-77
2020/12/13 07:51:45;;;;;;;22.35;9.38;;;7.80;99.90;;;;;;5094218;28;20027;-77
2020/12/13 07:54:19;;;;;;;22.63;8.02;;;7.90;99.90;;;;;;5093856;28;20016;-77
2020/12/13 07:56:47;;;;;;;18.85;8.10;;;7.80;99.90;;;;;;5093956;28;20024;-77
2020/12/13 07:59:18;;;;;;;20.15;7.70;;;7.80;99.90;;;;;;5093754;28;20031;-77
2020/12/13 08:01:49;;;;;;;20.02;7.68;;;7.80;99.90;;;;;;5094647;28;20030;-78
2020/12/13 08:04:16;;;;;;;17.23;7.00;;;7.80;99.90;;;;;;5093626;28;20107;-78
2020/12/13 08:06:42;;;;;;;23.98;7.85;;;7.80;99.90;;;;;;5093428;28;20028;-77
2020/12/13 08:09:13;;;;;;;21.20;7.82;;;7.80;99.90;;;;;;5093162;28;20027;-76
2020/12/13 08:11:39;;;;;;;21.23;8.70;;;7.80;99.90;;;;;;5094789;28;20081;-77
2020/12/13 08:14:06;;;;;;;20.58;7.68;;;7.90;99.90;;;;;;5093299;28;20063;-77
2020/12/13 08:16:33;;;;;;;23.88;7.68;;;7.90;99.90;;;;;;5093505;28;20017;-77
2020/12/13 08:19:15;;;;;;;23.80;8.68;;;7.90;99.90;;;;;;5094730;28;20028;-77
2020/12/13 08:21:53;;;;;;;21.27;8.93;;;7.90;99.90;;;;;;5095895;28;20073;-76
2020/12/13 08:24:19;;;;;;;19.13;8.32;;;7.90;99.90;;;;;;5093131;28;20028;-77
2020/12/13 08:26:45;;;;;;;21.00;8.00;;;7.90;99.90;;;;;;5093549;28;20016;-76
2020/12/13 08:29:11;;;;;;;17.85;7.97;;;7.90;99.90;;;;;;5093184;28;20057;-77
2020/12/13 08:31:37;;;;;;;15.18;6.93;;;7.90;99.90;;;;;;5094549;28;20469;-76
2020/12/13 08:34:05;;;;;;;18.90;7.55;;;7.90;99.90;;;;;;5096606;28;20016;-76
2020/12/13 08:36:31;;;;;;;19.90;6.50;;;7.40;99.90;;;;;;5095104;28;20384;-76
2020/12/13 08:39:10;;;;;;;19.67;6.88;;;7.90;99.90;;;;;;5094492;28;20028;-76
2020/12/13 08:41:46;;;;;;;23.52;6.45;;;7.90;99.90;;;;;;5093472;28;20039;-76
2020/12/13 08:44:28;;;;;;;19.10;6.38;;;8.00;99.90;;;;;;5094828;28;20024;-75
2020/12/13 08:46:55;;;;;;;18.33;5.47;;;7.90;99.90;;;;;;5093796;28;20499;-76
2020/12/13 08:49:25;;;;;;;14.48;5.03;;;7.90;99.90;;;;;;5094021;28;20111;-76
2020/12/13 08:51:51;;;;;;;18.02;5.75;;;7.90;99.90;;;;;;5095103;28;20032;-77
2020/12/13 08:54:16;;;;;;;16.02;4.90;;;7.90;99.90;;;;;;5093214;28;20576;-76
2020/12/13 08:56:42;;;;;;;16.05;4.93;;;7.90;99.90;;;;;;5094236;28;20036;-77
2020/12/13 08:59:08;;;;;;;14.43;5.05;;;7.80;99.90;;;;;;5094454;28;20012;-75
2020/12/13 09:01:39;;;;;;;14.40;4.65;;;7.80;99.90;;;;;;5097947;28;20046;-75
2020/12/13 09:04:21;;;;;;;12.52;4.70;;;7.90;99.90;;;;;;5096761;28;20051;-75
2020/12/13 09:06:58;;;;;;;10.68;4.00;;;7.90;99.90;;;;;;5097462;28;20107;-75
2020/12/13 09:09:32;;;;;;;15.45;4.35;;;7.90;99.90;;;;;;5096212;28;20088;-77
2020/12/13 09:12:02;;;;;;;11.70;4.32;;;7.90;99.90;;;;;;5097594;28;20107;-76
2020/12/13 09:14:32;;;;;;;14.20;4.97;;;7.90;99.90;;;;;;5096658;28;20027;-75
2020/12/13 09:17:00;;;;;;;11.90;4.47;;;7.90;99.90;;;;;;5097718;28;20016;-75
2020/12/13 09:19:26;;;;;;;15.48;4.43;;;7.90;99.90;;;;;;5096832;28;20039;-81
2020/12/13 09:21:57;;;;;;;13.98;4.70;;;7.90;99.90;;;;;;5096909;28;20012;-78
2020/12/13 09:24:31;;;;;;;14.38;3.28;;;8.00;99.90;;;;;;5097085;28;20021;-79
2020/12/13 09:27:07;;;;;;;11.63;5.25;;;8.00;99.90;;;;;;5097899;28;20024;-78
2020/12/13 09:29:35;;;;;;;12.15;3.40;;;7.90;99.90;;;;;;5097266;28;20020;-78
2020/12/13 09:32:02;;;;;;;7.80;3.55;;;7.90;99.90;;;;;;5097064;28;20016;-78
2020/12/13 09:34:28;;;;;;;12.05;4.05;;;7.90;99.90;;;;;;5096128;28;20016;-79
2020/12/13 09:36:53;;;;;;;16.58;4.32;;;7.90;99.90;;;;;;5097319;28;20023;-78
2020/12/13 09:39:19;;;;;;;15.57;5.00;;;7.90;99.90;;;;;;5097049;28;20030;-78
2020/12/13 09:41:45;;;;;;;11.18;5.18;;;7.90;99.90;;;;;;5095963;28;20362;-78
2020/12/13 09:44:13;;;;;;;17.38;5.43;;;7.80;99.90;;;;;;5098437;28;20035;-79
2020/12/13 09:46:39;;;;;;;21.20;6.43;;;7.80;99.90;;;;;;5096243;28;20028;-78
2020/12/13 09:49:05;;;;;;;16.48;7.07;;;7.70;99.90;;;;;;5096079;28;20082;-79
2020/12/13 09:51:31;;;;;;;17.35;6.38;;;7.70;99.90;;;;;;5095943;28;20021;-79
2020/12/13 09:53:56;;;;;;;16.15;6.28;;;7.70;99.90;;;;;;5095952;28;20124;-79
2020/12/13 09:56:22;;;;;;;14.90;5.85;;;7.70;99.90;;;;;;5096297;28;20389;-79
2020/12/13 09:58:47;;;;;;;15.25;5.55;;;7.60;99.90;;;;;;5098356;28;20389;-80
2020/12/13 10:01:14;;;;;;;16.42;6.70;;;7.60;99.90;;;;;;5098814;28;20388;-79
2020/12/13 10:03:44;;;;;;;17.10;6.57;;;7.60;99.90;;;;;;5098458;28;20020;-80
2020/12/13 10:06:29;;;;;;;13.75;5.28;;;7.60;99.90;;;;;;5097683;28;20442;-79
2020/12/13 10:11:20;;;;;;;12.55;5.88;;;7.60;99.90;;;;;;5096862;28;20112;-79
2020/12/13 10:13:46;;;;;;;10.00;4.50;;;7.60;99.90;;;;;;5095894;28;20031;-78
2020/12/13 10:16:14;;;;;;;20.35;4.93;;;7.60;99.90;;;;;;5095714;28;20069;-75
2020/12/13 10:18:43;;;;;;;17.80;6.43;;;7.50;99.90;;;;;;5095541;28;20481;-75
2020/12/13 10:21:08;;;;;;;13.70;4.70;;;7.30;99.90;;;;;;5095105;28;20075;-75
2020/12/13 10:23:34;;;;;;;9.20;3.92;;;7.60;99.90;;;;;;5095050;28;20507;-75
2020/12/13 10:25:59;;;;;;;14.32;4.53;;;7.60;99.90;;;;;;5093682;28;20064;-75
2020/12/13 10:28:24;;;;;;;16.77;6.13;;;7.70;99.90;;;;;;5094823;28;20024;-75
2020/12/13 10:30:50;;;;;;;16.48;5.30;;;7.70;99.90;;;;;;5093534;28;20028;-76
2020/12/13 10:33:17;;;;;;;19.10;5.55;;;7.80;99.90;;;;;;5095306;28;20354;-75
2020/12/13 10:35:43;;;;;;;15.85;4.50;;;7.70;99.90;;;;;;5094675;28;20031;-75
2020/12/13 10:38:08;;;;;;;12.18;4.78;;;7.80;99.90;;;;;;5094490;28;20027;-75
2020/12/13 10:40:34;;;;;;;12.07;4.75;;;7.90;99.90;;;;;;5093243;28;20362;-75
2020/12/13 10:43:00;;;;;;;9.43;4.10;;;7.90;99.90;;;;;;5094856;28;20465;-76
2020/12/13 10:45:30;;;;;;;12.85;4.32;;;7.90;99.90;;;;;;5094404;28;20053;-75
2020/12/13 10:47:55;;;;;;;;;;;8.00;99.90;;;;;;5094727;28;20028;-75
2020/12/13 10:50:21;;;;;;;12.55;3.83;;;8.00;99.90;;;;;;5093137;28;19904;-75
2020/12/13 10:52:46;;;;;;;9.65;4.47;;;8.10;99.90;;;;;;5094595;28;20118;-75
2020/12/13 10:55:12;;;;;;;14.32;4.40;;;8.10;99.90;;;;;;5094569;28;20054;-76
2020/12/13 10:57:40;;;;;;;10.27;3.75;;;8.10;99.90;;;;;;5092933;28;20048;-75
2020/12/13 11:00:05;;;;;;;17.77;4.38;;;8.10;99.90;;;;;;5092992;28;20028;-77
2020/12/13 11:02:31;;;;;;;10.38;3.92;;;8.10;99.90;;;;;;5094211;28;20129;-77
2020/12/13 11:04:57;;;;;;;11.40;3.15;;;8.10;99.90;;;;;;5092860;28;20036;-76
2020/12/13 11:07:22;;;;;;;7.97;3.30;;;8.10;99.90;;;;;;5093994;28;20024;-76
2020/12/13 11:09:48;;;;;;;5.40;2.38;;;8.20;99.90;;;;;;5092943;28;20046;-76
2020/12/13 11:12:13;;;;;;;12.32;3.17;;;8.20;99.90;;;;;;5094456;28;20480;-77
2020/12/13 11:14:39;;;;;;;9.98;2.88;;;8.30;99.90;;;;;;5093881;28;20024;-76
2020/12/13 11:17:04;;;;;;;12.07;3.17;;;8.30;99.90;;;;;;5095422;28;20065;-77
2020/12/13 11:19:30;;;;;;;12.45;3.70;;;8.20;99.90;;;;;;5096359;28;20020;-76
2020/12/13 11:21:58;;;;;;;9.48;3.90;;;8.30;99.90;;;;;;5094169;28;20032;-76
2020/12/13 11:24:24;;;;;;;11.25;3.85;;;8.30;99.90;;;;;;5097640;28;20439;-76
2020/12/13 11:26:49;;;;;;;11.98;3.60;;;8.30;99.90;;;;;;5098394;28;20054;-77
2020/12/13 11:29:15;;;;;;;8.85;2.95;;;8.30;99.90;;;;;;5094829;28;20101;-78
2020/12/13 11:31:41;;;;;;;6.45;2.67;;;8.30;99.90;;;;;;5097929;28;20518;-80
2020/12/13 11:34:06;;;;;;;11.23;2.67;;;8.40;99.90;;;;;;5098786;28;20027;-78
2020/12/13 11:36:32;;;;;;;11.10;2.17;;;8.40;99.90;;;;;;5096250;28;20023;-78
2020/12/13 11:38:58;;;;;;;10.30;2.15;;;8.50;99.90;;;;;;5093524;28;20028;-79
2020/12/13 11:41:30;;;;;;;10.35;2.67;;;8.60;99.90;;;;;;5093404;28;20032;-78
2020/12/13 11:43:56;;;;;;;8.10;2.67;;;8.60;99.90;;;;;;5101150;28;20055;-77
2020/12/13 11:46:22;;;;;;;7.75;2.33;;;8.50;99.90;;;;;;5093559;28;20019;-78
2020/12/13 11:48:48;;;;;;;8.60;1.90;;;8.40;99.90;;;;;;5094625;28;20077;-77
2020/12/13 11:51:13;;;;;;;9.45;2.15;;;8.40;99.90;;;;;;5092935;28;20389;-78
2020/12/13 11:53:39;;;;;;;7.35;2.20;;;8.30;99.90;;;;;;5093923;28;20103;-78
2020/12/13 11:56:05;;;;;;;8.43;2.28;;;8.30;99.90;;;;;;5094494;28;20085;-79
2020/12/13 11:58:30;;;;;;;8.40;2.08;;;8.30;99.90;;;;;;5094097;28;20020;-79
2020/12/13 12:00:56;;;;;;;5.13;1.25;;;8.30;99.90;;;;;;5098564;28;20036;-78
2020/12/13 12:03:21;;;;;;;8.10;2.83;;;8.30;99.90;;;;;;5097814;28;20035;-78
2020/12/13 12:05:47;;;;;;;8.13;1.88;;;8.30;99.90;;;;;;5097470;28;20016;-79
2020/12/13 12:08:12;;;;;;;10.95;2.15;;;8.30;99.90;;;;;;5100678;28;20039;-78
2020/12/13 12:10:38;;;;;;;6.78;2.25;;;8.40;99.90;;;;;;5096666;28;20543;-79
2020/12/13 12:13:04;;;;;;;16.77;1.77;;;8.30;99.90;;;;;;5101152;28;20016;-78
2020/12/13 12:15:29;;;;;;;6.18;2.33;;;8.30;99.90;;;;;;5096730;28;20032;-78
2020/12/13 12:17:55;;;;;;;6.43;1.33;;;8.40;99.90;;;;;;5097325;28;20028;-79
2020/12/13 12:20:26;;;;;;;11.07;1.60;;;8.40;99.90;;;;;;5095495;28;20027;-78
2020/12/13 12:22:55;;;;;;;8.30;1.63;;;8.50;99.90;;;;;;5098678;28;20024;-78
2020/12/13 12:25:20;;;;;;;8.07;1.48;;;8.50;99.90;;;;;;5096432;28;20058;-78
2020/12/13 12:27:46;;;;;;;9.73;0.90;;;8.60;99.90;;;;;;5097558;28;20489;-79
2020/12/13 12:30:12;;;;;;;7.30;1.80;;;8.60;99.90;;;;;;5096303;28;20470;-78
2020/12/13 12:32:38;;;;;;;5.28;1.42;;;8.60;99.90;;;;;;5097921;28;20027;-78
2020/12/13 12:35:05;;;;;;;12.00;1.80;;;8.70;99.90;;;;;;5100648;28;20107;-79
2020/12/13 12:37:32;;;;;;;6.20;1.88;;;8.70;99.90;;;;;;5099674;28;20035;-78
2020/12/13 12:39:57;;;;;;;10.57;1.42;;;8.70;99.90;;;;;;5096594;28;20020;-78
2020/12/13 12:42:23;;;;;;;5.45;1.88;;;8.70;99.90;;;;;;5095880;28;20078;-78
2020/12/13 12:44:49;;;;;;;3.30;0.93;;;8.70;99.90;;;;;;5096561;28;20536;-77
2020/12/13 12:47:15;;;;;;;6.50;1.23;;;8.70;99.90;;;;;;5097099;28;20032;-77
2020/12/13 12:49:41;;;;;;;3.80;1.17;;;8.70;99.90;;;;;;5095746;28;20111;-78
2020/12/13 12:52:07;;;;;;;9.13;0.82;;;8.40;99.90;;;;;;5097135;28;20021;-77
2020/12/13 12:54:32;;;;;;;4.45;0.52;;;8.80;99.90;;;;;;5096867;28;20020;-77
2020/12/13 12:56:58;;;;;;;5.13;1.25;;;8.90;99.90;;;;;;5096598;28;20472;-77
2020/12/13 12:59:28;;;;;;;8.93;1.63;;;9.00;99.90;;;;;;5096852;28;20050;-78